sensor_id;sensor_type;location;lat;lon;timestamp;P1;durP1;ratioP1;P2;durP2;ratioP2
4652;SDS011;9900;48.738;9.306;2023-01-08T00:01:18;13.23;;;8.90;;
4652;SDS011;9900;48.738;9.306;2023-01-08T00:03:47;15.07;;;9.33;;
4652;SDS011;9900;48.738;9.306;2023-01-08T00:06:16;12.63;;;9.20;;
4652;SDS011;9900;48.738;9.306;2023-01-08T00:08:48;13.17;;;9.10;;
4652;SDS011;9900;48.738;9.306;2023-01-08T00:11:17;21.03;;;10.43;;
4652;SDS011;9900;48.738;9.306;2023-01-08T00:13:46;14.10;;;9.43;;
4652;SDS011;9900;48.738;9.306;2023-01-08T00:16:15;13.70;;;8.70;;
4652;SDS011;9900;48.738;9.306;2023-01-08T00:18:45;12.77;;;8.80;;
4652;SDS011;9900;48.738;9.306;2023-01-08T00:21:14;16.27;;;10.50;;
4652;SDS011;9900;48.738;9.306;2023-01-08T00:23:42;15.43;;;9.77;;
4652;SDS011;9900;48.738;9.306;2023-01-08T00:26:13;15.87;;;10.03;;
4652;SDS011;9900;48.738;9.306;2023-01-08T00:28:42;16.43;;;9.40;;
4652;SDS011;9900;48.738;9.306;2023-01-08T00:31:11;14.40;;;8.70;;
4652;SDS011;9900;48.738;9.306;2023-01-08T00:33:40;14.70;;;9.60;;
4652;SDS011;9900;48.738;9.306;2023-01-08T00:36:10;15.67;;;8.97;;
4652;SDS011;9900;48.738;9.306;2023-01-08T00:38:40;14.37;;;9.40;;
4652;SDS011;9900;48.738;9.306;2023-01-08T00:41:10;14.10;;;9.17;;
4652;SDS011;9900;48.738;9.306;2023-01-08T00:43:40;12.33;;;9.07;;
4652;SDS011;9900;48.738;9.306;2023-01-08T00:46:09;14.50;;;9.70;;
4652;SDS011;9900;48.738;9.306;2023-01-08T00:48:38;13.17;;;8.00;;
4652;SDS011;9900;48.738;9.306;2023-01-08T00:51:07;15.03;;;8.73;;
4652;SDS011;9900;48.738;9.306;2023-01-08T00:53:36;12.57;;;8.20;;
4652;SDS011;9900;48.738;9.306;2023-01-08T00:56:05;15.80;;;10.00;;
4652;SDS011;9900;48.738;9.306;2023-01-08T00:58:35;13.60;;;9.30;;
4652;SDS011;9900;48.738;9.306;2023-01-08T01:01:09;17.00;;;10.47;;
4652;SDS011;9900;48.738;9.306;2023-01-08T01:03:38;13.97;;;9.60;;
4652;SDS011;9900;48.738;9.306;2023-01-08T01:06:07;11.97;;;8.80;;
4652;SDS011;9900;48.738;9.306;2023-01-08T01:08:36;14.83;;;9.30;;
4652;SDS011;9900;48.738;9.306;2023-01-08T01:11:05;13.07;;;9.27;;
4652;SDS011;9900;48.738;9.306;2023-01-08T01:13:34;11.83;;;8.50;;
4652;SDS011;9900;48.738;9.306;2023-01-08T01:16:03;16.30;;;8.80;;
4652;SDS011;9900;48.738;9.306;2023-01-08T01:18:34;13.27;;;8.87;;
4652;SDS011;9900;48.738;9.306;2023-01-08T01:21:08;11.50;;;8.43;;
4652;SDS011;9900;48.738;9.306;2023-01-08T01:23:37;15.10;;;8.70;;
4652;SDS011;9900;48.738;9.306;2023-01-08T01:26:12;12.77;;;8.53;;
4652;SDS011;9900;48.738;9.306;2023-01-08T01:28:42;14.00;;;8.90;;
4652;SDS011;9900;48.738;9.306;2023-01-08T01:31:11;12.00;;;8.43;;
4652;SDS011;9900;48.738;9.306;2023-01-08T01:33:41;11.00;;;7.57;;
4652;SDS011;9900;48.738;9.306;2023-01-08T01:36:11;14.00;;;8.10;;
4652;SDS011;9900;48.738;9.306;2023-01-08T01:38:41;10.77;;;8.07;;
4652;SDS011;9900;48.738;9.306;2023-01-08T01:41:13;15.83;;;8.30;;
4652;SDS011;9900;48.738;9.306;2023-01-08T01:43:46;13.53;;;7.90;;
4652;SDS011;9900;48.738;9.306;2023-01-08T01:46:17;13.40;;;8.70;;
4652;SDS011;9900;48.738;9.306;2023-01-08T01:48:52;12.43;;;8.50;;
4652;SDS011;9900;48.738;9.306;2023-01-08T01:51:24;13.83;;;8.07;;
4652;SDS011;9900;48.738;9.306;2023-01-08T01:53:57;12.00;;;8.30;;
4652;SDS011;9900;48.738;9.306;2023-01-08T01:56:26;9.10;;;7.00;;
4652;SDS011;9900;48.738;9.306;2023-01-08T01:58:56;16.83;;;8.23;;
4652;SDS011;9900;48.738;9.306;2023-01-08T02:01:24;12.03;;;8.37;;
4652;SDS011;9900;48.738;9.306;2023-01-08T02:03:55;12.30;;;8.10;;
4652;SDS011;9900;48.738;9.306;2023-01-08T02:06:27;12.50;;;8.27;;
4652;SDS011;9900;48.738;9.306;2023-01-08T02:09:02;11.83;;;7.83;;
4652;SDS011;9900;48.738;9.306;2023-01-08T02:11:40;11.63;;;8.10;;
4652;SDS011;9900;48.738;9.306;2023-01-08T02:14:15;10.37;;;7.00;;
4652;SDS011;9900;48.738;9.306;2023-01-08T02:16:46;13.40;;;8.03;;
4652;SDS011;9900;48.738;9.306;2023-01-08T02:19:27;11.20;;;8.20;;
4652;SDS011;9900;48.738;9.306;2023-01-08T02:22:05;9.07;;;7.37;;
4652;SDS011;9900;48.738;9.306;2023-01-08T02:24:44;12.03;;;9.10;;
4652;SDS011;9900;48.738;9.306;2023-01-08T02:27:18;10.90;;;7.60;;
4652;SDS011;9900;48.738;9.306;2023-01-08T02:29:48;13.20;;;8.43;;
4652;SDS011;9900;48.738;9.306;2023-01-08T02:32:17;12.00;;;8.70;;
4652;SDS011;9900;48.738;9.306;2023-01-08T02:34:46;10.70;;;7.97;;
4652;SDS011;9900;48.738;9.306;2023-01-08T02:37:15;13.90;;;7.87;;
4652;SDS011;9900;48.738;9.306;2023-01-08T02:39:50;13.40;;;8.50;;
4652;SDS011;9900;48.738;9.306;2023-01-08T02:42:28;12.23;;;8.17;;
4652;SDS011;9900;48.738;9.306;2023-01-08T02:45:04;10.60;;;8.23;;
4652;SDS011;9900;48.738;9.306;2023-01-08T02:47:38;11.23;;;7.40;;
4652;SDS011;9900;48.738;9.306;2023-01-08T02:50:11;16.30;;;8.10;;
4652;SDS011;9900;48.738;9.306;2023-01-08T02:52:45;13.63;;;8.17;;
4652;SDS011;9900;48.738;9.306;2023-01-08T02:55:17;15.83;;;8.40;;
4652;SDS011;9900;48.738;9.306;2023-01-08T02:57:48;11.57;;;7.67;;
4652;SDS011;9900;48.738;9.306;2023-01-08T03:00:17;11.97;;;8.00;;
4652;SDS011;9900;48.738;9.306;2023-01-08T03:02:47;11.13;;;8.30;;
4652;SDS011;9900;48.738;9.306;2023-01-08T03:05:19;13.63;;;8.77;;
4652;SDS011;9900;48.738;9.306;2023-01-08T03:07:50;10.73;;;8.17;;
4652;SDS011;9900;48.738;9.306;2023-01-08T03:10:19;12.90;;;8.53;;
4652;SDS011;9900;48.738;9.306;2023-01-08T03:12:52;10.67;;;7.50;;
4652;SDS011;9900;48.738;9.306;2023-01-08T03:15:24;11.27;;;7.50;;
4652;SDS011;9900;48.738;9.306;2023-01-08T03:17:55;14.07;;;7.90;;
4652;SDS011;9900;48.738;9.306;2023-01-08T03:20:26;11.00;;;7.07;;
4652;SDS011;9900;48.738;9.306;2023-01-08T03:22:56;11.50;;;7.53;;
4652;SDS011;9900;48.738;9.306;2023-01-08T03:25:25;12.07;;;7.60;;
4652;SDS011;9900;48.738;9.306;2023-01-08T03:27:58;10.77;;;7.00;;
4652;SDS011;9900;48.738;9.306;2023-01-08T03:30:29;9.90;;;7.50;;
4652;SDS011;9900;48.738;9.306;2023-01-08T03:32:59;11.60;;;7.97;;
4652;SDS011;9900;48.738;9.306;2023-01-08T03:35:28;10.70;;;6.97;;
4652;SDS011;9900;48.738;9.306;2023-01-08T03:37:59;10.80;;;7.40;;
4652;SDS011;9900;48.738;9.306;2023-01-08T03:40:33;13.33;;;7.70;;
4652;SDS011;9900;48.738;9.306;2023-01-08T03:43:04;12.87;;;8.10;;
4652;SDS011;9900;48.738;9.306;2023-01-08T03:45:32;9.57;;;6.80;;
4652;SDS011;9900;48.738;9.306;2023-01-08T03:48:05;14.13;;;8.00;;
4652;SDS011;9900;48.738;9.306;2023-01-08T03:50:35;13.43;;;9.20;;
4652;SDS011;9900;48.738;9.306;2023-01-08T03:53:03;10.67;;;7.53;;
4652;SDS011;9900;48.738;9.306;2023-01-08T03:55:32;12.20;;;8.53;;
4652;SDS011;9900;48.738;9.306;2023-01-08T03:58:01;13.80;;;7.83;;
4652;SDS011;9900;48.738;9.306;2023-01-08T04:00:31;11.77;;;7.23;;
4652;SDS011;9900;48.738;9.306;2023-01-08T04:02:59;9.30;;;7.43;;
4652;SDS011;9900;48.738;9.306;2023-01-08T04:05:31;9.87;;;7.73;;
4652;SDS011;9900;48.738;9.306;2023-01-08T04:08:00;14.03;;;7.63;;
4652;SDS011;9900;48.738;9.306;2023-01-08T04:10:29;10.70;;;7.10;;
4652;SDS011;9900;48.738;9.306;2023-01-08T04:12:57;10.93;;;7.70;;
4652;SDS011;9900;48.738;9.306;2023-01-08T04:15:26;10.73;;;7.27;;
4652;SDS011;9900;48.738;9.306;2023-01-08T04:17:56;10.80;;;7.50;;
4652;SDS011;9900;48.738;9.306;2023-01-08T04:20:25;11.13;;;7.70;;
4652;SDS011;9900;48.738;9.306;2023-01-08T04:22:53;13.03;;;7.73;;
4652;SDS011;9900;48.738;9.306;2023-01-08T04:25:22;10.70;;;7.60;;
4652;SDS011;9900;48.738;9.306;2023-01-08T04:27:51;13.30;;;8.10;;
4652;SDS011;9900;48.738;9.306;2023-01-08T04:30:19;9.23;;;7.43;;
4652;SDS011;9900;48.738;9.306;2023-01-08T04:32:48;11.47;;;7.70;;
4652;SDS011;9900;48.738;9.306;2023-01-08T04:35:18;11.57;;;7.10;;
4652;SDS011;9900;48.738;9.306;2023-01-08T04:37:46;10.70;;;7.73;;
4652;SDS011;9900;48.738;9.306;2023-01-08T04:40:15;8.93;;;6.33;;
4652;SDS011;9900;48.738;9.306;2023-01-08T04:42:44;12.43;;;7.90;;
4652;SDS011;9900;48.738;9.306;2023-01-08T04:45:12;12.30;;;7.60;;
4652;SDS011;9900;48.738;9.306;2023-01-08T04:47:41;13.80;;;7.90;;
4652;SDS011;9900;48.738;9.306;2023-01-08T04:50:10;11.73;;;7.47;;
4652;SDS011;9900;48.738;9.306;2023-01-08T04:52:40;9.40;;;7.93;;
4652;SDS011;9900;48.738;9.306;2023-01-08T04:55:08;10.83;;;7.40;;
4652;SDS011;9900;48.738;9.306;2023-01-08T04:57:37;11.33;;;7.73;;
4652;SDS011;9900;48.738;9.306;2023-01-08T05:00:06;13.43;;;7.70;;
4652;SDS011;9900;48.738;9.306;2023-01-08T05:02:35;11.00;;;7.80;;
4652;SDS011;9900;48.738;9.306;2023-01-08T05:05:05;10.10;;;7.20;;
4652;SDS011;9900;48.738;9.306;2023-01-08T05:07:34;9.27;;;7.10;;
4652;SDS011;9900;48.738;9.306;2023-01-08T05:10:04;12.33;;;8.10;;
4652;SDS011;9900;48.738;9.306;2023-01-08T05:12:34;13.47;;;8.03;;
4652;SDS011;9900;48.738;9.306;2023-01-08T05:15:03;9.67;;;7.67;;
4652;SDS011;9900;48.738;9.306;2023-01-08T05:17:32;11.10;;;7.63;;
4652;SDS011;9900;48.738;9.306;2023-01-08T05:20:00;15.30;;;7.40;;
4652;SDS011;9900;48.738;9.306;2023-01-08T05:22:29;12.10;;;8.30;;
4652;SDS011;9900;48.738;9.306;2023-01-08T05:24:58;12.53;;;7.60;;
4652;SDS011;9900;48.738;9.306;2023-01-08T05:27:28;10.77;;;7.90;;
4652;SDS011;9900;48.738;9.306;2023-01-08T05:29:56;11.60;;;8.00;;
4652;SDS011;9900;48.738;9.306;2023-01-08T05:32:25;13.17;;;8.30;;
4652;SDS011;9900;48.738;9.306;2023-01-08T05:34:53;12.90;;;8.23;;
4652;SDS011;9900;48.738;9.306;2023-01-08T05:37:22;11.10;;;7.80;;
4652;SDS011;9900;48.738;9.306;2023-01-08T05:39:51;11.70;;;8.20;;
4652;SDS011;9900;48.738;9.306;2023-01-08T05:42:19;11.30;;;8.20;;
4652;SDS011;9900;48.738;9.306;2023-01-08T05:44:49;9.60;;;7.43;;
4652;SDS011;9900;48.738;9.306;2023-01-08T05:47:18;10.90;;;7.40;;
4652;SDS011;9900;48.738;9.306;2023-01-08T05:49:46;11.13;;;7.70;;
4652;SDS011;9900;48.738;9.306;2023-01-08T05:52:15;11.27;;;8.10;;
4652;SDS011;9900;48.738;9.306;2023-01-08T05:54:44;10.17;;;7.57;;
4652;SDS011;9900;48.738;9.306;2023-01-08T05:57:12;10.70;;;7.80;;
4652;SDS011;9900;48.738;9.306;2023-01-08T05:59:41;9.67;;;7.43;;
4652;SDS011;9900;48.738;9.306;2023-01-08T06:02:11;9.90;;;7.63;;
4652;SDS011;9900;48.738;9.306;2023-01-08T06:04:40;8.43;;;7.00;;
4652;SDS011;9900;48.738;9.306;2023-01-08T06:07:08;11.27;;;7.77;;
4652;SDS011;9900;48.738;9.306;2023-01-08T06:09:37;13.00;;;7.40;;
4652;SDS011;9900;48.738;9.306;2023-01-08T06:12:06;11.63;;;7.70;;
4652;SDS011;9900;48.738;9.306;2023-01-08T06:14:34;10.53;;;7.33;;
4652;SDS011;9900;48.738;9.306;2023-01-08T06:17:03;12.73;;;7.90;;
4652;SDS011;9900;48.738;9.306;2023-01-08T06:19:33;11.93;;;8.03;;
4652;SDS011;9900;48.738;9.306;2023-01-08T06:22:02;10.70;;;7.53;;
4652;SDS011;9900;48.738;9.306;2023-01-08T06:24:30;9.80;;;7.40;;
4652;SDS011;9900;48.738;9.306;2023-01-08T06:26:59;9.40;;;6.87;;
4652;SDS011;9900;48.738;9.306;2023-01-08T06:29:28;10.50;;;7.20;;
4652;SDS011;9900;48.738;9.306;2023-01-08T06:31:56;18.70;;;8.37;;
4652;SDS011;9900;48.738;9.306;2023-01-08T06:34:25;10.87;;;7.63;;
4652;SDS011;9900;48.738;9.306;2023-01-08T06:36:55;9.17;;;6.80;;
4652;SDS011;9900;48.738;9.306;2023-01-08T06:39:24;8.90;;;7.20;;
4652;SDS011;9900;48.738;9.306;2023-01-08T06:41:52;14.00;;;7.93;;
4652;SDS011;9900;48.738;9.306;2023-01-08T06:44:21;11.60;;;7.27;;
4652;SDS011;9900;48.738;9.306;2023-01-08T06:46:50;12.73;;;7.70;;
4652;SDS011;9900;48.738;9.306;2023-01-08T06:49:18;12.20;;;7.53;;
4652;SDS011;9900;48.738;9.306;2023-01-08T06:51:48;10.80;;;7.40;;
4652;SDS011;9900;48.738;9.306;2023-01-08T06:54:18;10.77;;;7.20;;
4652;SDS011;9900;48.738;9.306;2023-01-08T06:56:47;11.23;;;7.17;;
4652;SDS011;9900;48.738;9.306;2023-01-08T06:59:20;11.20;;;7.03;;
4652;SDS011;9900;48.738;9.306;2023-01-08T07:01:49;7.10;;;5.90;;
4652;SDS011;9900;48.738;9.306;2023-01-08T07:04:18;6.97;;;6.07;;
4652;SDS011;9900;48.738;9.306;2023-01-08T07:06:47;7.70;;;6.00;;
4652;SDS011;9900;48.738;9.306;2023-01-08T07:09:15;6.90;;;5.30;;
4652;SDS011;9900;48.738;9.306;2023-01-08T07:11:45;8.93;;;5.60;;
4652;SDS011;9900;48.738;9.306;2023-01-08T07:14:14;5.80;;;5.20;;
4652;SDS011;9900;48.738;9.306;2023-01-08T07:16:43;6.00;;;4.83;;
4652;SDS011;9900;48.738;9.306;2023-01-08T07:19:11;10.73;;;6.97;;
4652;SDS011;9900;48.738;9.306;2023-01-08T07:21:40;10.47;;;6.87;;
4652;SDS011;9900;48.738;9.306;2023-01-08T07:24:09;13.27;;;6.57;;
4652;SDS011;9900;48.738;9.306;2023-01-08T07:26:37;7.57;;;6.77;;
4652;SDS011;9900;48.738;9.306;2023-01-08T07:29:07;7.83;;;6.10;;
4652;SDS011;9900;48.738;9.306;2023-01-08T07:31:36;8.90;;;6.40;;
4652;SDS011;9900;48.738;9.306;2023-01-08T07:34:05;7.73;;;5.90;;
4652;SDS011;9900;48.738;9.306;2023-01-08T07:36:33;8.23;;;5.97;;
4652;SDS011;9900;48.738;9.306;2023-01-08T07:39:02;6.90;;;5.50;;
4652;SDS011;9900;48.738;9.306;2023-01-08T07:41:31;8.03;;;5.97;;
4652;SDS011;9900;48.738;9.306;2023-01-08T07:43:59;5.40;;;4.77;;
4652;SDS011;9900;48.738;9.306;2023-01-08T07:46:30;8.70;;;5.40;;
4652;SDS011;9900;48.738;9.306;2023-01-08T07:48:58;8.30;;;5.90;;
4652;SDS011;9900;48.738;9.306;2023-01-08T07:51:27;8.37;;;4.93;;
4652;SDS011;9900;48.738;9.306;2023-01-08T07:53:56;6.80;;;5.20;;
4652;SDS011;9900;48.738;9.306;2023-01-08T07:56:25;8.17;;;5.60;;
4652;SDS011;9900;48.738;9.306;2023-01-08T07:58:53;7.47;;;4.73;;
4652;SDS011;9900;48.738;9.306;2023-01-08T08:01:22;7.80;;;5.40;;
4652;SDS011;9900;48.738;9.306;2023-01-08T08:03:53;7.80;;;4.73;;
4652;SDS011;9900;48.738;9.306;2023-01-08T08:06:22;8.50;;;4.40;;
4652;SDS011;9900;48.738;9.306;2023-01-08T08:08:51;10.63;;;6.07;;
4652;SDS011;9900;48.738;9.306;2023-01-08T08:11:19;9.80;;;6.20;;
4652;SDS011;9900;48.738;9.306;2023-01-08T08:13:48;9.90;;;6.50;;
4652;SDS011;9900;48.738;9.306;2023-01-08T08:16:20;6.03;;;5.10;;
4652;SDS011;9900;48.738;9.306;2023-01-08T08:18:48;4.47;;;4.03;;
4652;SDS011;9900;48.738;9.306;2023-01-08T08:21:18;7.10;;;4.70;;
4652;SDS011;9900;48.738;9.306;2023-01-08T08:23:47;5.90;;;4.00;;
4652;SDS011;9900;48.738;9.306;2023-01-08T08:26:15;5.70;;;4.67;;
4652;SDS011;9900;48.738;9.306;2023-01-08T08:28:44;5.30;;;4.80;;
4652;SDS011;9900;48.738;9.306;2023-01-08T08:31:13;6.57;;;4.73;;
4652;SDS011;9900;48.738;9.306;2023-01-08T08:33:42;8.00;;;5.10;;
4652;SDS011;9900;48.738;9.306;2023-01-08T08:36:10;8.03;;;5.43;;
4652;SDS011;9900;48.738;9.306;2023-01-08T08:38:40;6.53;;;5.83;;
4652;SDS011;9900;48.738;9.306;2023-01-08T08:41:09;9.20;;;6.03;;
4652;SDS011;9900;48.738;9.306;2023-01-08T08:43:38;9.27;;;5.67;;
4652;SDS011;9900;48.738;9.306;2023-01-08T08:46:06;6.40;;;4.90;;
4652;SDS011;9900;48.738;9.306;2023-01-08T08:48:35;7.73;;;5.17;;
4652;SDS011;9900;48.738;9.306;2023-01-08T08:51:03;8.83;;;6.17;;
4652;SDS011;9900;48.738;9.306;2023-01-08T08:53:32;9.70;;;6.73;;
4652;SDS011;9900;48.738;9.306;2023-01-08T08:56:02;10.40;;;5.50;;
4652;SDS011;9900;48.738;9.306;2023-01-08T08:58:31;7.53;;;5.77;;
4652;SDS011;9900;48.738;9.306;2023-01-08T09:01:00;10.43;;;5.83;;
4652;SDS011;9900;48.738;9.306;2023-01-08T09:03:29;9.23;;;5.70;;
4652;SDS011;9900;48.738;9.306;2023-01-08T09:05:58;7.97;;;5.43;;
4652;SDS011;9900;48.738;9.306;2023-01-08T09:08:27;7.33;;;5.53;;
4652;SDS011;9900;48.738;9.306;2023-01-08T09:10:55;5.67;;;5.13;;
4652;SDS011;9900;48.738;9.306;2023-01-08T09:13:25;6.90;;;5.50;;
4652;SDS011;9900;48.738;9.306;2023-01-08T09:15:56;10.43;;;5.60;;
4652;SDS011;9900;48.738;9.306;2023-01-08T09:18:25;7.10;;;5.70;;
4652;SDS011;9900;48.738;9.306;2023-01-08T09:20:54;7.33;;;5.77;;
4652;SDS011;9900;48.738;9.306;2023-01-08T09:23:22;8.57;;;5.40;;
4652;SDS011;9900;48.738;9.306;2023-01-08T09:25:57;6.80;;;5.50;;
4652;SDS011;9900;48.738;9.306;2023-01-08T09:28:28;6.40;;;4.77;;
4652;SDS011;9900;48.738;9.306;2023-01-08T09:30:59;7.63;;;4.77;;
4652;SDS011;9900;48.738;9.306;2023-01-08T09:33:28;9.63;;;5.37;;
4652;SDS011;9900;48.738;9.306;2023-01-08T09:35:57;7.53;;;5.97;;
4652;SDS011;9900;48.738;9.306;2023-01-08T09:38:27;8.87;;;5.67;;
4652;SDS011;9900;48.738;9.306;2023-01-08T09:40:57;6.33;;;5.43;;
4652;SDS011;9900;48.738;9.306;2023-01-08T09:43:31;7.07;;;5.20;;
4652;SDS011;9900;48.738;9.306;2023-01-08T09:46:02;9.70;;;6.07;;
4652;SDS011;9900;48.738;9.306;2023-01-08T09:48:33;6.83;;;5.10;;
4652;SDS011;9900;48.738;9.306;2023-01-08T09:51:03;9.70;;;6.20;;
4652;SDS011;9900;48.738;9.306;2023-01-08T09:53:33;8.30;;;5.90;;
4652;SDS011;9900;48.738;9.306;2023-01-08T09:56:03;7.73;;;5.70;;
4652;SDS011;9900;48.738;9.306;2023-01-08T09:58:39;6.20;;;5.60;;
4652;SDS011;9900;48.738;9.306;2023-01-08T10:01:11;5.87;;;5.27;;
4652;SDS011;9900;48.738;9.306;2023-01-08T10:03:42;15.40;;;7.73;;
4652;SDS011;9900;48.738;9.306;2023-01-08T10:06:13;9.60;;;6.60;;
4652;SDS011;9900;48.738;9.306;2023-01-08T10:08:42;10.30;;;6.57;;
4652;SDS011;9900;48.738;9.306;2023-01-08T10:11:12;8.80;;;5.97;;
4652;SDS011;9900;48.738;9.306;2023-01-08T10:13:45;9.87;;;6.37;;
4652;SDS011;9900;48.738;9.306;2023-01-08T10:16:20;11.67;;;8.00;;
4652;SDS011;9900;48.738;9.306;2023-01-08T10:18:54;9.50;;;7.20;;
4652;SDS011;9900;48.738;9.306;2023-01-08T10:21:27;10.40;;;6.40;;
4652;SDS011;9900;48.738;9.306;2023-01-08T10:23:57;9.37;;;6.10;;
4652;SDS011;9900;48.738;9.306;2023-01-08T10:26:27;9.37;;;6.80;;
4652;SDS011;9900;48.738;9.306;2023-01-08T10:29:12;11.20;;;7.10;;
4652;SDS011;9900;48.738;9.306;2023-01-08T10:31:46;9.83;;;6.47;;
4652;SDS011;9900;48.738;9.306;2023-01-08T10:34:23;7.47;;;6.07;;
4652;SDS011;9900;48.738;9.306;2023-01-08T10:36:53;10.30;;;6.07;;
4652;SDS011;9900;48.738;9.306;2023-01-08T10:39:24;7.03;;;5.53;;
4652;SDS011;9900;48.738;9.306;2023-01-08T10:41:54;5.97;;;4.90;;
4652;SDS011;9900;48.738;9.306;2023-01-08T10:44:25;6.00;;;4.90;;
4652;SDS011;9900;48.738;9.306;2023-01-08T10:46:54;10.10;;;5.90;;
4652;SDS011;9900;48.738;9.306;2023-01-08T10:49:27;6.10;;;5.50;;
4652;SDS011;9900;48.738;9.306;2023-01-08T10:51:59;7.37;;;5.83;;
4652;SDS011;9900;48.738;9.306;2023-01-08T10:54:37;10.87;;;6.37;;
4652;SDS011;9900;48.738;9.306;2023-01-08T10:57:17;23.53;;;6.80;;
4652;SDS011;9900;48.738;9.306;2023-01-08T10:59:49;7.03;;;4.93;;
4652;SDS011;9900;48.738;9.306;2023-01-08T11:02:20;9.20;;;6.37;;
4652;SDS011;9900;48.738;9.306;2023-01-08T11:04:53;6.90;;;5.30;;
4652;SDS011;9900;48.738;9.306;2023-01-08T11:07:21;7.07;;;5.17;;
4652;SDS011;9900;48.738;9.306;2023-01-08T11:09:51;7.03;;;5.17;;
4652;SDS011;9900;48.738;9.306;2023-01-08T11:12:25;8.80;;;5.23;;
4652;SDS011;9900;48.738;9.306;2023-01-08T11:15:00;6.53;;;4.63;;
4652;SDS011;9900;48.738;9.306;2023-01-08T11:17:29;5.30;;;4.13;;
4652;SDS011;9900;48.738;9.306;2023-01-08T11:20:05;5.30;;;3.93;;
4652;SDS011;9900;48.738;9.306;2023-01-08T11:22:35;6.10;;;3.90;;
4652;SDS011;9900;48.738;9.306;2023-01-08T11:25:04;6.53;;;4.17;;
4652;SDS011;9900;48.738;9.306;2023-01-08T11:27:41;7.87;;;5.03;;
4652;SDS011;9900;48.738;9.306;2023-01-08T11:30:14;7.53;;;6.47;;
4652;SDS011;9900;48.738;9.306;2023-01-08T11:32:46;7.33;;;4.83;;
4652;SDS011;9900;48.738;9.306;2023-01-08T11:35:17;2.27;;;2.07;;
4652;SDS011;9900;48.738;9.306;2023-01-08T11:37:49;1.80;;;1.70;;
4652;SDS011;9900;48.738;9.306;2023-01-08T11:40:21;2.80;;;1.10;;
4652;SDS011;9900;48.738;9.306;2023-01-08T11:43:03;0.90;;;0.70;;
4652;SDS011;9900;48.738;9.306;2023-01-08T11:45:43;1.00;;;0.90;;
4652;SDS011;9900;48.738;9.306;2023-01-08T11:48:34;3.00;;;2.70;;
4652;SDS011;9900;48.738;9.306;2023-01-08T11:51:29;1.10;;;1.00;;
4652;SDS011;9900;48.738;9.306;2023-01-08T11:54:05;0.70;;;0.70;;
4652;SDS011;9900;48.738;9.306;2023-01-08T11:56:40;1.00;;;0.80;;
4652;SDS011;9900;48.738;9.306;2023-01-08T11:59:24;2.50;;;0.97;;
4652;SDS011;9900;48.738;9.306;2023-01-08T12:02:00;1.20;;;0.77;;
4652;SDS011;9900;48.738;9.306;2023-01-08T12:04:42;0.80;;;0.80;;
4652;SDS011;9900;48.738;9.306;2023-01-08T12:07:22;1.10;;;0.70;;
4652;SDS011;9900;48.738;9.306;2023-01-08T12:09:54;1.60;;;0.90;;
4652;SDS011;9900;48.738;9.306;2023-01-08T12:12:28;0.97;;;0.77;;
4652;SDS011;9900;48.738;9.306;2023-01-08T12:15:10;0.80;;;0.80;;
4652;SDS011;9900;48.738;9.306;2023-01-08T12:20:44;0.90;;;0.80;;
4652;SDS011;9900;48.738;9.306;2023-01-08T12:23:20;1.37;;;1.00;;
4652;SDS011;9900;48.738;9.306;2023-01-08T12:26:04;1.00;;;0.90;;
4652;SDS011;9900;48.738;9.306;2023-01-08T12:28:48;1.13;;;1.03;;
4652;SDS011;9900;48.738;9.306;2023-01-08T12:34:40;0.70;;;0.60;;
4652;SDS011;9900;48.738;9.306;2023-01-08T12:37:13;0.70;;;0.70;;
4652;SDS011;9900;48.738;9.306;2023-01-08T12:39:45;1.00;;;0.73;;
4652;SDS011;9900;48.738;9.306;2023-01-08T12:42:17;1.30;;;0.80;;
4652;SDS011;9900;48.738;9.306;2023-01-08T12:44:51;0.80;;;0.70;;
4652;SDS011;9900;48.738;9.306;2023-01-08T12:47:21;1.10;;;0.63;;
4652;SDS011;9900;48.738;9.306;2023-01-08T12:49:55;0.70;;;0.60;;
4652;SDS011;9900;48.738;9.306;2023-01-08T12:52:31;0.60;;;0.60;;
4652;SDS011;9900;48.738;9.306;2023-01-08T12:55:12;0.90;;;0.80;;
4652;SDS011;9900;48.738;9.306;2023-01-08T12:57:45;0.80;;;0.70;;
4652;SDS011;9900;48.738;9.306;2023-01-08T13:00:18;0.93;;;0.80;;
4652;SDS011;9900;48.738;9.306;2023-01-08T13:02:50;0.80;;;0.77;;
4652;SDS011;9900;48.738;9.306;2023-01-08T13:05:32;1.20;;;1.00;;
4652;SDS011;9900;48.738;9.306;2023-01-08T13:08:02;0.97;;;0.93;;
4652;SDS011;9900;48.738;9.306;2023-01-08T13:10:33;1.10;;;1.00;;
4652;SDS011;9900;48.738;9.306;2023-01-08T13:13:05;1.20;;;1.10;;
4652;SDS011;9900;48.738;9.306;2023-01-08T13:15:34;4.13;;;1.03;;
4652;SDS011;9900;48.738;9.306;2023-01-08T13:18:04;2.90;;;0.90;;
4652;SDS011;9900;48.738;9.306;2023-01-08T13:20:37;1.10;;;1.03;;
4652;SDS011;9900;48.738;9.306;2023-01-08T13:23:05;1.90;;;0.97;;
4652;SDS011;9900;48.738;9.306;2023-01-08T13:25:35;1.03;;;0.97;;
4652;SDS011;9900;48.738;9.306;2023-01-08T13:28:16;1.43;;;0.83;;
4652;SDS011;9900;48.738;9.306;2023-01-08T13:30:53;1.00;;;0.90;;
4652;SDS011;9900;48.738;9.306;2023-01-08T13:33:36;0.90;;;0.90;;
4652;SDS011;9900;48.738;9.306;2023-01-08T13:36:16;2.00;;;0.80;;
4652;SDS011;9900;48.738;9.306;2023-01-08T13:38:58;1.13;;;1.00;;
4652;SDS011;9900;48.738;9.306;2023-01-08T13:41:28;1.03;;;0.93;;
4652;SDS011;9900;48.738;9.306;2023-01-08T13:43:59;0.77;;;0.77;;
4652;SDS011;9900;48.738;9.306;2023-01-08T13:46:31;1.50;;;1.07;;
4652;SDS011;9900;48.738;9.306;2023-01-08T13:49:01;1.33;;;1.20;;
4652;SDS011;9900;48.738;9.306;2023-01-08T13:51:41;1.33;;;1.23;;
4652;SDS011;9900;48.738;9.306;2023-01-08T13:54:21;1.10;;;1.00;;
4652;SDS011;9900;48.738;9.306;2023-01-08T13:56:54;1.13;;;1.03;;
4652;SDS011;9900;48.738;9.306;2023-01-08T13:59:33;0.80;;;0.80;;
4652;SDS011;9900;48.738;9.306;2023-01-08T14:02:20;1.00;;;0.90;;
4652;SDS011;9900;48.738;9.306;2023-01-08T14:04:51;1.07;;;0.97;;
4652;SDS011;9900;48.738;9.306;2023-01-08T14:07:22;1.43;;;1.00;;
4652;SDS011;9900;48.738;9.306;2023-01-08T14:09:52;1.07;;;0.97;;
4652;SDS011;9900;48.738;9.306;2023-01-08T14:12:22;1.40;;;1.27;;
4652;SDS011;9900;48.738;9.306;2023-01-08T14:14:51;1.17;;;1.07;;
4652;SDS011;9900;48.738;9.306;2023-01-08T14:17:23;1.20;;;1.10;;
4652;SDS011;9900;48.738;9.306;2023-01-08T14:19:56;1.20;;;1.10;;
4652;SDS011;9900;48.738;9.306;2023-01-08T14:22:26;2.40;;;1.33;;
4652;SDS011;9900;48.738;9.306;2023-01-08T14:24:59;1.50;;;1.40;;
4652;SDS011;9900;48.738;9.306;2023-01-08T14:27:29;1.40;;;1.20;;
4652;SDS011;9900;48.738;9.306;2023-01-08T14:29:59;1.90;;;1.70;;
4652;SDS011;9900;48.738;9.306;2023-01-08T14:32:28;1.30;;;1.20;;
4652;SDS011;9900;48.738;9.306;2023-01-08T14:34:57;1.30;;;1.20;;
4652;SDS011;9900;48.738;9.306;2023-01-08T14:37:28;2.10;;;1.30;;
4652;SDS011;9900;48.738;9.306;2023-01-08T14:39:56;2.13;;;1.93;;
4652;SDS011;9900;48.738;9.306;2023-01-08T14:42:27;3.43;;;3.13;;
4652;SDS011;9900;48.738;9.306;2023-01-08T14:45:15;2.87;;;1.97;;
4652;SDS011;9900;48.738;9.306;2023-01-08T14:47:47;1.90;;;1.80;;
4652;SDS011;9900;48.738;9.306;2023-01-08T14:50:21;3.47;;;1.57;;
4652;SDS011;9900;48.738;9.306;2023-01-08T14:52:53;1.30;;;1.20;;
4652;SDS011;9900;48.738;9.306;2023-01-08T14:55:25;1.20;;;1.00;;
4652;SDS011;9900;48.738;9.306;2023-01-08T14:57:54;1.20;;;1.10;;
4652;SDS011;9900;48.738;9.306;2023-01-08T15:00:25;2.50;;;1.47;;
4652;SDS011;9900;48.738;9.306;2023-01-08T15:02:54;1.30;;;1.20;;
4652;SDS011;9900;48.738;9.306;2023-01-08T15:05:25;1.30;;;1.20;;
4652;SDS011;9900;48.738;9.306;2023-01-08T15:08:00;1.40;;;1.30;;
4652;SDS011;9900;48.738;9.306;2023-01-08T15:10:31;1.87;;;1.57;;
4652;SDS011;9900;48.738;9.306;2023-01-08T15:13:04;1.40;;;1.30;;
4652;SDS011;9900;48.738;9.306;2023-01-08T15:15:35;1.80;;;1.40;;
4652;SDS011;9900;48.738;9.306;2023-01-08T15:18:09;1.70;;;1.47;;
4652;SDS011;9900;48.738;9.306;2023-01-08T15:20:39;3.63;;;1.53;;
4652;SDS011;9900;48.738;9.306;2023-01-08T15:23:21;2.60;;;1.30;;
4652;SDS011;9900;48.738;9.306;2023-01-08T15:25:53;3.10;;;1.50;;
4652;SDS011;9900;48.738;9.306;2023-01-08T15:28:22;4.30;;;1.80;;
4652;SDS011;9900;48.738;9.306;2023-01-08T15:30:52;2.23;;;1.70;;
4652;SDS011;9900;48.738;9.306;2023-01-08T15:33:23;1.97;;;1.80;;
4652;SDS011;9900;48.738;9.306;2023-01-08T15:35:53;13.40;;;6.80;;
4652;SDS011;9900;48.738;9.306;2023-01-08T15:38:23;21.63;;;11.00;;